createdAt,value
2023-02-12T00:01:04.615Z,99.63
2023-02-12T00:06:04.570Z,99.63
2023-02-12T00:11:04.443Z,99.73
2023-02-12T00:16:04.432Z,99.73
2023-02-12T00:21:04.319Z,99.84
2023-02-12T00:26:04.509Z,99.84
2023-02-12T00:31:04.337Z,99.84
2023-02-12T00:36:04.106Z,99.84
2023-02-12T00:41:04.089Z,99.94
2023-02-12T00:46:04.026Z,99.84
2023-02-12T00:51:03.930Z,99.84
2023-02-12T00:56:03.858Z,99.99
2023-02-12T01:01:03.928Z,99.99
2023-02-12T01:06:03.773Z,99.99
2023-02-12T01:11:03.698Z,99.99
2023-02-12T01:16:03.682Z,99.99
2023-02-12T01:21:03.582Z,99.99
2023-02-12T01:26:03.516Z,99.99
2023-02-12T01:31:03.855Z,99.99
2023-02-12T01:36:03.331Z,99.99
2023-02-12T01:41:03.326Z,99.94
2023-02-12T01:46:03.227Z,99.73
2023-02-12T01:51:03.158Z,99.48
2023-02-12T01:56:03.091Z,99.63
2023-02-12T02:01:03.006Z,99.58
2023-02-12T02:06:02.925Z,99.84
2023-02-12T02:11:02.907Z,99.94
2023-02-12T02:16:02.810Z,99.99
2023-02-12T02:21:02.799Z,99.99
2023-02-12T02:26:02.661Z,99.99
2023-02-12T02:31:02.777Z,99.99
2023-02-12T02:36:02.527Z,99.99
2023-02-12T02:41:02.484Z,99.99
2023-02-12T02:46:02.415Z,99.99
2023-02-12T02:51:02.353Z,99.99
2023-02-12T02:56:02.273Z,99.99
2023-02-12T03:01:02.389Z,99.99
2023-02-12T03:06:02.127Z,99.99
2023-02-12T03:11:02.069Z,99.99
2023-02-12T03:16:02.087Z,99.99
2023-02-12T03:21:01.955Z,99.99
2023-02-12T03:26:01.875Z,99.99
2023-02-12T03:31:01.949Z,99.99
2023-02-12T03:36:01.755Z,99.99
2023-02-12T03:41:01.700Z,99.99
2023-02-12T03:46:01.703Z,99.99
2023-02-12T03:51:01.555Z,99.99
2023-02-12T03:56:01.490Z,99.99
2023-02-12T04:01:01.459Z,99.99
2023-02-12T04:06:01.347Z,99.99
2023-02-12T04:11:01.263Z,99.99
2023-02-12T04:16:01.216Z,99.99
2023-02-12T04:21:01.128Z,99.99
2023-02-12T04:26:01.075Z,99.99
2023-02-12T04:31:01.214Z,99.99
2023-02-12T04:36:00.907Z,99.99
2023-02-12T04:41:00.929Z,99.99
2023-02-12T04:46:00.829Z,99.99
2023-02-12T04:51:00.726Z,99.99
2023-02-12T04:56:00.668Z,99.99
2023-02-12T05:01:00.614Z,99.99
2023-02-12T05:06:00.791Z,99.99
2023-02-12T05:11:00.467Z,99.99
2023-02-12T05:16:00.456Z,99.99
2023-02-12T05:21:00.376Z,99.99
2023-02-12T05:26:00.255Z,99.99
2023-02-12T05:31:00.285Z,99.99
2023-02-12T05:36:00.402Z,99.99
2023-02-12T05:41:00.098Z,99.99
2023-02-12T05:46:00.029Z,99.99
2023-02-12T05:50:59.963Z,99.99
2023-02-12T05:55:59.936Z,99.99
2023-02-12T06:00:59.820Z,99.99
2023-02-12T06:05:59.789Z,99.99
2023-02-12T06:10:59.687Z,99.99
2023-02-12T06:15:59.900Z,99.99
2023-02-12T06:20:59.530Z,99.99
2023-02-12T06:25:59.454Z,99.99
2023-02-12T06:30:59.583Z,99.99
2023-02-12T06:35:59.444Z,99.99
2023-02-12T06:40:59.305Z,99.99
2023-02-12T06:45:59.250Z,99.99
2023-02-12T06:50:59.157Z,99.99
2023-02-12T06:55:59.091Z,99.99
2023-02-12T07:00:59.062Z,99.99
2023-02-12T07:05:58.970Z,99.99
2023-02-12T07:10:58.863Z,99.99
2023-02-12T07:15:59.153Z,99.90
2023-02-12T07:20:58.829Z,99.58
2023-02-12T07:25:58.738Z,99.33
2023-02-12T07:30:58.606Z,99.13
2023-02-12T07:35:58.564Z,98.92
2023-02-12T07:40:58.501Z,98.41
2023-02-12T07:45:58.802Z,97.85
2023-02-12T07:50:58.323Z,97.64
2023-02-12T07:55:58.445Z,97.13
2023-02-12T08:00:58.210Z,97.33
2023-02-12T08:05:58.323Z,97.64
2023-02-12T08:10:58.090Z,97.28
2023-02-12T08:15:58.369Z,96.88
2023-02-12T08:20:58.039Z,96.36
2023-02-12T08:25:58.046Z,96.56
2023-02-12T08:30:57.869Z,96.25
2023-02-12T08:35:59.857Z,97.08
2023-02-12T08:40:57.733Z,96.31
2023-02-12T08:45:58.023Z,96.00
2023-02-12T08:50:57.564Z,96.00
2023-02-12T08:55:57.824Z,95.18
2023-02-12T09:00:57.464Z,95.80
2023-02-12T09:05:57.603Z,95.55
2023-02-12T09:10:57.344Z,95.03
2023-02-12T09:15:57.802Z,94.37
2023-02-12T09:20:57.184Z,93.86
2023-02-12T09:25:57.407Z,93.76
2023-02-12T09:30:57.176Z,93.65
2023-02-12T09:35:57.206Z,93.76
2023-02-12T09:40:57.025Z,93.86
2023-02-12T09:45:57.222Z,94.62
2023-02-12T09:50:56.743Z,96.18
2023-02-12T09:55:56.981Z,93.57
2023-02-12T10:00:56.908Z,91.47
2023-02-12T10:05:56.933Z,90.55
2023-02-12T10:10:56.780Z,90.85
2023-02-12T10:15:56.662Z,90.59
2023-02-12T10:20:56.618Z,91.20
2023-02-12T10:25:56.843Z,91.51
2023-02-12T10:30:56.421Z,91.82
2023-02-12T10:35:56.420Z,90.85
2023-02-12T10:40:56.070Z,90.61
2023-02-12T10:45:56.414Z,89.75
2023-02-12T10:50:55.921Z,89.04
2023-02-12T10:55:56.185Z,87.20
2023-02-12T11:00:55.837Z,85.46
2023-02-12T11:05:56.039Z,86.75
2023-02-12T11:10:55.661Z,86.07
2023-02-12T11:15:55.629Z,84.80
2023-02-12T11:20:55.543Z,84.70
2023-02-12T11:25:55.739Z,84.15
2023-02-12T11:30:55.550Z,84.22
2023-02-12T11:35:55.322Z,83.05
2023-02-12T11:40:55.820Z,82.23
2023-02-12T11:45:55.655Z,81.45
2023-02-12T11:50:55.203Z,82.27
2023-02-12T11:55:55.076Z,81.76
2023-02-12T12:00:55.131Z,81.04
2023-02-12T12:05:55.234Z,81.32
2023-02-12T12:10:54.874Z,82.59
2023-02-12T12:15:55.113Z,83.41
2023-02-12T12:20:54.809Z,84.10
2023-02-12T12:25:55.093Z,85.50
2023-02-12T12:30:54.724Z,84.88
2023-02-12T12:35:55.038Z,84.47
2023-02-12T12:40:54.555Z,85.33
2023-02-12T12:45:54.741Z,85.85
2023-02-12T12:50:54.379Z,87.73
2023-02-12T12:55:54.748Z,87.43
2023-02-12T13:00:54.424Z,87.12
2023-02-12T13:05:54.685Z,87.43
2023-02-12T13:10:54.066Z,88.18
2023-02-12T13:15:54.436Z,90.38
2023-02-12T13:20:53.935Z,91.82
2023-02-12T13:25:54.126Z,92.44
2023-02-12T13:30:54.024Z,92.44
2023-02-12T13:35:54.030Z,91.93
2023-02-12T13:40:53.787Z,91.57
2023-02-12T13:45:54.923Z,90.71
2023-02-12T13:50:58.966Z,89.84
2023-02-12T13:55:54.906Z,89.27
2023-02-12T14:00:53.403Z,89.89
2023-02-12T14:05:53.323Z,89.78
2023-02-12T14:10:53.329Z,89.84
2023-02-12T14:15:53.345Z,89.23
2023-02-12T14:20:53.208Z,89.23
2023-02-12T14:25:53.129Z,90.09
2023-02-12T14:30:53.554Z,90.71
2023-02-12T14:35:53.420Z,90.09
2023-02-12T14:40:52.847Z,90.09
2023-02-12T14:45:52.849Z,90.55
2023-02-12T14:50:52.740Z,91.72
2023-02-12T14:55:53.067Z,91.82
2023-02-12T15:00:54.593Z,92.03
2023-02-12T15:05:52.572Z,91.88
2023-02-12T15:10:52.461Z,92.33
2023-02-12T15:15:52.492Z,93.16
2023-02-12T15:20:52.299Z,93.87
2023-02-12T15:25:53.590Z,94.64
2023-02-12T15:30:52.794Z,95.56
2023-02-12T15:35:52.657Z,96.18
2023-02-12T15:40:52.055Z,96.18
2023-02-12T15:45:52.173Z,96.08
2023-02-12T15:50:51.946Z,96.28
2023-02-12T15:55:52.141Z,96.84
2023-02-12T16:00:51.798Z,97.45
2023-02-12T16:05:51.862Z,97.66
2023-02-12T16:10:52.133Z,97.77
2023-02-12T16:15:52.848Z,97.87
2023-02-12T16:20:51.647Z,98.18
2023-02-12T16:25:51.561Z,97.97
2023-02-12T16:30:52.542Z,98.12
2023-02-12T16:35:51.652Z,98.43
2023-02-12T16:40:51.424Z,98.58
2023-02-12T16:45:51.400Z,98.58
2023-02-12T16:50:51.308Z,98.88
2023-02-12T16:55:51.527Z,98.68
2023-02-12T17:00:51.060Z,98.47
2023-02-12T17:05:51.009Z,98.47
2023-02-12T17:10:50.960Z,98.47
2023-02-12T17:15:50.819Z,98.58
2023-02-12T17:20:50.825Z,98.27
2023-02-12T17:25:50.935Z,98.32
2023-02-12T17:30:50.694Z,98.72
2023-02-12T17:35:51.597Z,98.83
2023-02-12T17:40:50.642Z,98.83
2023-02-12T17:45:50.503Z,98.83
2023-02-12T17:50:50.640Z,99.04
2023-02-12T17:55:50.270Z,99.24
2023-02-12T18:00:50.220Z,99.34
2023-02-12T18:05:50.185Z,99.99
2023-02-12T18:10:50.096Z,99.51
2023-02-12T18:15:50.099Z,99.60
2023-02-12T18:20:49.983Z,99.82
2023-02-12T18:25:50.038Z,97.81
2023-02-12T18:30:49.857Z,97.40
2023-02-12T18:35:49.870Z,97.75
2023-02-12T18:40:49.733Z,98.42
2023-02-12T18:45:49.779Z,99.14
2023-02-12T18:50:49.628Z,99.44
2023-02-12T18:56:21.913Z,99.55
2023-02-12T19:01:21.818Z,99.49
2023-02-12T19:06:22.741Z,99.99
2023-02-12T19:11:21.644Z,99.99
2023-02-12T19:16:21.575Z,99.76
2023-02-12T19:21:21.744Z,99.29
2023-02-12T19:26:21.522Z,99.39
2023-02-12T19:31:21.532Z,99.70
2023-02-12T19:36:21.310Z,99.70
2023-02-12T19:41:21.388Z,99.49
2023-02-12T19:46:21.199Z,99.18
2023-02-12T19:51:21.160Z,99.23
2023-02-12T19:56:21.083Z,99.70
2023-02-12T20:01:21.395Z,99.70
2023-02-12T20:06:20.910Z,99.95
2023-02-12T20:11:20.881Z,99.99
2023-02-12T20:16:20.790Z,99.99
2023-02-12T20:21:20.789Z,99.99
2023-02-12T20:26:20.789Z,99.99
2023-02-12T20:31:20.725Z,99.99
2023-02-12T20:36:21.774Z,99.99
2023-02-12T20:41:20.448Z,99.99
2023-02-12T20:46:20.381Z,99.99
2023-02-12T20:51:20.313Z,99.99
2023-02-12T20:56:20.253Z,99.99
2023-02-12T21:01:20.247Z,99.99
2023-02-12T21:06:20.180Z,99.99
2023-02-12T21:11:20.086Z,99.99
2023-02-12T21:16:20.180Z,99.69
2023-02-12T21:21:19.948Z,99.90
2023-02-12T21:26:19.894Z,99.84
2023-02-12T21:31:19.927Z,99.99
2023-02-12T21:36:19.714Z,99.99
2023-02-12T21:41:19.668Z,99.99
2023-02-12T21:46:20.042Z,99.99
2023-02-12T21:51:19.568Z,99.99
2023-02-12T21:56:19.491Z,99.99
2023-02-12T22:01:19.541Z,99.99
2023-02-12T22:06:19.366Z,99.99
2023-02-12T22:11:19.277Z,99.99
2023-02-12T22:16:19.236Z,99.99
2023-02-12T22:21:19.114Z,99.99
2023-02-12T22:26:19.075Z,99.99
2023-02-12T22:31:19.033Z,99.99
2023-02-12T22:36:19.040Z,99.99
2023-02-12T22:41:18.920Z,99.99
2023-02-12T22:46:18.869Z,99.99
2023-02-12T22:51:18.732Z,99.99
2023-02-12T22:56:18.722Z,99.99
2023-02-12T23:01:18.631Z,99.99
2023-02-12T23:06:18.555Z,99.99
2023-02-12T23:11:18.459Z,99.99
2023-02-12T23:16:18.456Z,99.99
2023-02-12T23:21:18.378Z,99.99
2023-02-12T23:26:18.363Z,99.99
2023-02-12T23:31:18.429Z,99.99
2023-02-12T23:36:18.170Z,99.99
2023-02-12T23:41:18.089Z,99.99
2023-02-12T23:46:18.111Z,99.99
2023-02-12T23:51:17.995Z,99.99
2023-02-12T23:56:17.920Z,99.99
